Time;durP1;ratioP1;P1;durP2;ratioP2;P2;SDS_P1;SDS_P2;PMS_P1;PMS_P2;Temp;Humidity;BMP_temperature;BMP_pressure;BME280_temperature;BME280_humidity;BME280_pressure;Samples;Min_cycle;Max_cycle;Signal;HPM_P1;HPM_P2
2022/10/06 00:01:37;;;;;;;;;;;16.20;99.90;;;;;;7338486;19;111947;-89
2022/10/06 00:04:04;;;;;;;;;;;16.10;99.90;;;;;;7338350;19;112155;-89
2022/10/06 00:06:32;;;;;;;;;;;16.10;99.90;;;;;;7345970;19;108575;-89
2022/10/06 00:08:59;;;;;;;;;;;16.00;99.90;;;;;;7341191;19;110177;-89
2022/10/06 00:11:25;;;;;;;;;;;16.00;99.90;;;;;;7337060;19;109604;-89
2022/10/06 00:13:52;;;;;;;;;;;15.90;99.90;;;;;;7341305;19;109203;-89
2022/10/06 00:16:23;;;;;;;;;;;15.90;99.90;;;;;;7340177;19;111811;-89
2022/10/06 00:18:50;;;;;;;;;;;15.80;99.90;;;;;;7339450;19;108715;-90
2022/10/06 00:21:17;;;;;;;;;;;15.80;99.90;;;;;;7342153;19;108682;-88
2022/10/06 00:23:44;;;;;;;;;;;15.80;99.90;;;;;;7338936;19;110502;-89
2022/10/06 00:26:15;;;;;;;;;;;15.70;99.90;;;;;;7337343;19;109799;-89
2022/10/06 00:28:45;;;;;;;;;;;15.70;99.90;;;;;;7344619;19;110804;-89
2022/10/06 00:31:18;;;;;;;;;;;15.70;99.90;;;;;;7340918;19;108813;-89
2022/10/06 00:33:45;;;;;;;;;;;15.60;99.90;;;;;;7339226;19;109601;-88
2022/10/06 00:36:12;;;;;;;;;;;15.60;99.90;;;;;;7338213;19;110554;-88
2022/10/06 00:38:39;;;;;;;;;;;15.50;99.90;;;;;;7339412;19;109381;-89
2022/10/06 00:41:08;;;;;;;;;;;15.50;99.90;;;;;;7338954;19;109038;-88
2022/10/06 00:43:38;;;;;;;;;;;15.50;99.90;;;;;;7339395;19;110230;-88
2022/10/06 00:46:10;;;;;;;;;;;15.50;99.90;;;;;;7339107;19;108659;-88
2022/10/06 00:48:37;;;;;;;;;;;15.40;99.90;;;;;;7338869;19;108611;-87
2022/10/06 00:51:04;;;;;;;;;;;15.40;99.90;;;;;;7344665;19;113079;-89
2022/10/06 00:53:31;;;;;;;;;;;15.30;99.90;;;;;;7337301;19;109530;-89
2022/10/06 00:56:01;;;;;;;;;;;15.30;99.90;;;;;;7338033;19;111542;-89
2022/10/06 00:58:28;;;;;;;;;;;15.30;99.90;;;;;;7339235;19;110631;-88
2022/10/06 01:00:56;;;;;;;;;;;15.30;99.90;;;;;;7339096;19;109843;-88
2022/10/06 01:03:27;;;;;;;;;;;15.30;99.90;;;;;;7336727;19;109570;-88
2022/10/06 01:05:55;;;;;;;;;;;15.20;99.90;;;;;;7339952;19;109017;-88
2022/10/06 01:08:22;;;;;;;;;;;15.20;99.90;;;;;;7340886;19;109610;-90
2022/10/06 01:10:49;;;;;;;;;;;15.10;99.90;;;;;;7337505;19;110422;-88
2022/10/06 01:13:16;;;;;;;;;;;15.10;99.90;;;;;;7344469;19;108383;-88
2022/10/06 01:15:49;;;;;;;;;;;15.10;99.90;;;;;;7340611;19;112551;-88
2022/10/06 01:18:17;;;;;;;;;;;15.00;99.90;;;;;;7337422;19;109623;-88
2022/10/06 01:20:48;;;;;;;;;;;15.00;99.90;;;;;;7339836;19;111507;-88
2022/10/06 01:23:15;;;;;;;;;;;15.00;99.90;;;;;;7337435;19;110261;-89
2022/10/06 01:25:43;;;;;;;;;;;14.90;99.90;;;;;;7347629;19;109297;-88
2022/10/06 01:28:11;;;;;;;;;;;14.90;99.90;;;;;;7344677;19;109132;-88
2022/10/06 01:30:42;;;;;;;;;;;14.90;99.90;;;;;;7348300;19;110395;-89
2022/10/06 01:33:09;;;;;;;;;;;14.80;99.90;;;;;;7345014;19;108649;-89
2022/10/06 01:35:36;;;;;;;;;;;14.80;99.90;;;;;;7354357;19;111747;-89
2022/10/06 01:38:03;;;;;;;;;;;14.80;99.90;;;;;;7350072;19;108478;-89
2022/10/06 01:40:30;;;;;;;;;;;14.70;99.90;;;;;;7348398;19;108450;-88
2022/10/06 01:42:57;;;;;;;;;;;14.70;99.90;;;;;;7350081;19;111853;-88
2022/10/06 01:45:23;;;;;;;;;;;14.70;99.90;;;;;;7350817;19;108499;-89
2022/10/06 01:47:51;;;;;;;;;;;14.70;99.90;;;;;;7351001;19;109747;-90
2022/10/06 01:50:18;;;;;;;;;;;14.60;99.90;;;;;;7350377;19;115281;-89
2022/10/06 01:52:45;;;;;;;;;;;14.60;99.90;;;;;;7351085;19;109434;-89
2022/10/06 01:55:13;;;;;;;;;;;14.50;99.90;;;;;;7357283;19;111811;-89
2022/10/06 01:57:40;;;;;;;;;;;14.50;99.90;;;;;;7349090;19;108595;-89
2022/10/06 02:00:08;;;;;;;;;;;14.50;99.90;;;;;;7350691;19;109112;-89
2022/10/06 02:02:35;;;;;;;;;;;14.40;99.90;;;;;;7349009;19;109495;-89
2022/10/06 02:05:02;;;;;;;;;;;14.40;99.90;;;;;;7348700;19;108891;-89
2022/10/06 02:07:29;;;;;;;;;;;14.30;99.90;;;;;;7346649;19;112557;-89
2022/10/06 02:09:56;;;;;;;;;;;14.30;99.90;;;;;;7348379;19;110216;-89
2022/10/06 02:12:23;;;;;;;;;;;14.30;99.90;;;;;;7352556;19;110409;-88
2022/10/06 02:14:50;;;;;;;;;;;14.20;99.90;;;;;;7348430;19;108223;-89
2022/10/06 02:17:17;;;;;;;;;;;14.20;99.90;;;;;;7352988;19;113042;-89
2022/10/06 02:19:43;;;;;;;;;;;14.20;99.90;;;;;;7351000;19;111476;-89
2022/10/06 02:22:10;;;;;;;;;;;14.20;99.90;;;;;;7350307;19;109242;-89
2022/10/06 02:24:37;;;;;;;;;;;14.10;99.90;;;;;;7349373;19;108698;-89
2022/10/06 02:27:05;;;;;;;;;;;14.10;99.90;;;;;;7350050;19;111404;-89
2022/10/06 02:29:32;;;;;;;;;;;14.10;99.90;;;;;;7348572;19;111152;-89
2022/10/06 02:31:59;;;;;;;;;;;14.10;99.90;;;;;;7349273;19;109064;-88
2022/10/06 02:34:26;;;;;;;;;;;14.00;99.90;;;;;;7348628;19;109387;-88
2022/10/06 02:36:53;;;;;;;;;;;14.00;99.90;;;;;;7347526;19;110361;-88
2022/10/06 02:39:20;;;;;;;;;;;14.00;99.90;;;;;;7351511;19;109413;-88
2022/10/06 02:41:47;;;;;;;;;;;14.00;99.90;;;;;;7349101;19;112612;-88
2022/10/06 02:44:14;;;;;;;;;;;13.90;99.90;;;;;;7348900;19;109704;-88
2022/10/06 02:46:41;;;;;;;;;;;13.90;99.90;;;;;;7348925;19;109325;-88
2022/10/06 02:49:08;;;;;;;;;;;13.90;99.90;;;;;;7349037;19;109691;-88
2022/10/06 02:51:34;;;;;;;;;;;13.80;99.90;;;;;;7347948;19;108789;-88
2022/10/06 02:54:01;;;;;;;;;;;13.80;99.90;;;;;;7347896;19;109190;-88
2022/10/06 02:56:28;;;;;;;;;;;13.80;99.90;;;;;;7346357;19;110622;-88
2022/10/06 02:58:55;;;;;;;;;;;13.80;99.90;;;;;;7348485;19;108790;-87
2022/10/06 03:01:24;;;;;;;;;;;13.80;99.90;;;;;;7345169;19;108513;-76
2022/10/06 03:03:53;;;;;;;;;;;13.70;99.90;;;;;;7334570;19;108899;-75
2022/10/06 03:06:22;;;;;;;;;;;13.70;99.90;;;;;;7332422;19;109151;-76
2022/10/06 03:08:49;;;;;;;;;;;13.70;99.90;;;;;;7337227;19;112438;-76
2022/10/06 03:11:18;;;;;;;;;;;13.70;99.90;;;;;;7337047;19;108875;-76
2022/10/06 03:13:45;;;;;;;;;;;13.70;99.90;;;;;;7335860;19;109056;-76
2022/10/06 03:16:16;;;;;;;;;;;13.70;99.90;;;;;;7335261;19;109977;-75
2022/10/06 03:18:48;;;;;;;;;;;13.70;99.90;;;;;;7336939;19;109366;-75
2022/10/06 03:21:19;;;;;;;;;;;13.60;99.90;;;;;;7335534;19;108521;-76
2022/10/06 03:23:47;;;;;;;;;;;13.60;99.90;;;;;;7340906;19;110135;-76
2022/10/06 03:26:16;;;;;;;;;;;13.60;99.90;;;;;;7335456;19;109025;-76
2022/10/06 03:28:43;;;;;;;;;;;13.60;99.90;;;;;;7337269;19;110637;-76
2022/10/06 03:31:11;;;;;;;;;;;13.60;99.90;;;;;;7333794;19;109998;-75
2022/10/06 03:33:38;;;;;;;;;;;13.50;99.90;;;;;;7336451;19;114482;-75
2022/10/06 03:36:06;;;;;;;;;;;13.50;99.90;;;;;;7335025;19;109116;-76
2022/10/06 03:38:33;;;;;;;;;;;13.50;99.90;;;;;;7336914;19;108604;-76
2022/10/06 03:41:04;;;;;;;;;;;13.50;99.90;;;;;;7338054;19;109086;-76
2022/10/06 03:43:32;;;;;;;;;;;13.50;99.90;;;;;;7334168;19;110924;-76
2022/10/06 03:46:02;;;;;;;;;;;13.50;99.90;;;;;;7338920;19;109872;-77
2022/10/06 03:48:30;;;;;;;;;;;13.40;99.90;;;;;;7334141;19;110668;-77
2022/10/06 03:51:09;;;;;;;;;;;13.40;99.90;;;;;;7336607;19;111909;-76
2022/10/06 03:53:36;;;;;;;;;;;13.40;99.90;;;;;;7334696;19;109057;-76
2022/10/06 03:56:08;;;;;;;;;;;13.40;99.90;;;;;;7334411;19;111378;-78
2022/10/06 03:58:36;;;;;;;;;;;13.40;99.90;;;;;;7335634;19;108766;-78
2022/10/06 04:01:03;;;;;;;;;;;13.30;99.90;;;;;;7335010;19;109706;-78
2022/10/06 04:03:30;;;;;;;;;;;13.30;99.90;;;;;;7330070;19;110113;-77
2022/10/06 04:05:59;;;;;;;;;;;13.30;99.90;;;;;;7340316;19;108784;-77
2022/10/06 04:08:29;;;;;;;;;;;13.20;99.90;;;;;;7332224;19;109325;-79
2022/10/06 04:11:07;;;;;;;;;;;13.20;99.90;;;;;;7334963;19;109367;-77
2022/10/06 04:13:34;;;;;;;;;;;13.20;99.90;;;;;;7337225;19;109657;-77
2022/10/06 04:16:13;;;;;;;;;;;13.20;99.90;;;;;;7335261;19;114500;-77
2022/10/06 04:18:41;;;;;;;;;;;13.20;99.90;;;;;;7334680;19;110221;-77
2022/10/06 04:21:08;;;;;;;;;;;13.20;99.90;;;;;;7336026;19;111257;-77
2022/10/06 04:23:36;;;;;;;;;;;13.10;99.90;;;;;;7335273;19;109983;-76
2022/10/06 04:26:05;;;;;;;;;;;13.10;99.90;;;;;;7332698;19;109235;-76
2022/10/06 04:28:32;;;;;;;;;;;13.10;99.90;;;;;;7338089;19;109761;-78
2022/10/06 04:31:00;;;;;;;;;;;13.00;99.90;;;;;;7335382;19;108661;-77
2022/10/06 04:33:27;;;;;;;;;;;13.00;99.90;;;;;;7331903;19;109185;-76
2022/10/06 04:35:58;;;;;;;;;;;13.00;99.90;;;;;;7332953;19;110518;-76
2022/10/06 04:38:27;;;;;;;;;;;12.90;99.90;;;;;;7333386;19;108599;-78
2022/10/06 04:40:56;;;;;;;;;;;12.90;99.90;;;;;;7333433;19;109956;-77
2022/10/06 04:43:23;;;;;;;;;;;12.90;99.90;;;;;;7333505;19;112001;-76
2022/10/06 04:45:57;;;;;;;;;;;12.90;99.90;;;;;;7333363;19;110209;-76
2022/10/06 04:48:25;;;;;;;;;;;12.90;99.90;;;;;;7334174;19;109621;-76
2022/10/06 04:50:54;;;;;;;;;;;12.90;99.90;;;;;;7339899;19;109462;-76
2022/10/06 04:53:21;;;;;;;;;;;12.80;99.90;;;;;;7333678;19;108759;-76
2022/10/06 04:55:56;;;;;;;;;;;12.80;99.90;;;;;;7334518;19;111083;-76
2022/10/06 04:58:23;;;;;;;;;;;12.80;99.90;;;;;;7332637;19;109436;-76
2022/10/06 05:00:50;;;;;;;;;;;12.80;99.90;;;;;;7332256;19;109255;-76
2022/10/06 05:03:17;;;;;;;;;;;12.70;99.90;;;;;;7332059;19;111164;-75
2022/10/06 05:05:44;;;;;;;;;;;12.70;99.90;;;;;;7334464;19;109658;-76
2022/10/06 05:08:11;;;;;;;;;;;12.70;99.90;;;;;;7331616;19;109218;-76
2022/10/06 05:10:38;;;;;;;;;;;12.70;99.90;;;;;;7334519;19;110346;-75
2022/10/06 05:13:05;;;;;;;;;;;12.70;99.90;;;;;;7339590;19;109035;-77
2022/10/06 05:15:32;;;;;;;;;;;12.70;99.90;;;;;;7331623;19;110285;-76
2022/10/06 05:17:59;;;;;;;;;;;12.70;99.90;;;;;;7330915;19;109112;-76
2022/10/06 05:20:26;;;;;;;;;;;12.60;99.90;;;;;;7331808;19;109404;-76
2022/10/06 05:22:53;;;;;;;;;;;12.60;99.90;;;;;;7330773;19;109633;-76
2022/10/06 05:25:20;;;;;;;;;;;12.60;99.90;;;;;;7330855;19;108376;-76
2022/10/06 05:27:47;;;;;;;;;;;12.60;99.90;;;;;;7334029;19;109708;-75
2022/10/06 05:30:13;;;;;;;;;;;12.60;99.90;;;;;;7331724;19;109222;-75
2022/10/06 05:32:45;;;;;;;;;;;12.60;99.90;;;;;;7332386;19;109515;-77
2022/10/06 05:35:11;;;;;;;;;;;12.50;99.90;;;;;;7335147;19;108584;-75
2022/10/06 05:37:38;;;;;;;;;;;12.50;99.90;;;;;;7331475;19;109439;-76
2022/10/06 05:40:06;;;;;;;;;;;12.50;99.90;;;;;;7334338;19;109277;-77
2022/10/06 05:42:32;;;;;;;;;;;12.50;99.90;;;;;;7332332;19;110040;-76
2022/10/06 05:44:59;;;;;;;;;;;12.50;99.90;;;;;;7331658;19;109210;-76
2022/10/06 05:47:26;;;;;;;;;;;12.50;99.90;;;;;;7332723;19;109151;-76
2022/10/06 05:49:53;;;;;;;;;;;12.40;99.90;;;;;;7332397;19;109743;-76
2022/10/06 05:52:20;;;;;;;;;;;12.50;99.90;;;;;;7330139;19;110649;-76
2022/10/06 05:54:47;;;;;;;;;;;12.40;99.90;;;;;;7333799;19;111946;-76
2022/10/06 05:57:14;;;;;;;;;;;12.40;99.90;;;;;;7335580;19;110238;-77
2022/10/06 05:59:41;;;;;;;;;;;12.40;99.90;;;;;;7330250;19;109054;-78
2022/10/06 06:02:08;;;;;;;;;;;12.30;99.90;;;;;;7330117;19;110302;-75
2022/10/06 06:04:35;;;;;;;;;;;12.40;99.90;;;;;;7329406;19;111291;-72
2022/10/06 06:07:02;;;;;;;;;;;12.30;99.90;;;;;;7327042;19;109444;-72
2022/10/06 06:09:29;;;;;;;;;;;12.30;99.90;;;;;;7327953;19;109383;-72
2022/10/06 06:11:57;;;;;;;;;;;12.30;99.90;;;;;;7339654;19;108731;-71
2022/10/06 06:17:10;;;;;;;;;;;12.30;99.90;;;;;;7343439;19;110585;-72
2022/10/06 06:19:37;;;;;;;;;;;12.30;99.90;;;;;;7340083;19;110792;-74
2022/10/06 06:22:04;;;;;;;;;;;12.30;99.90;;;;;;7339685;19;113912;-71
2022/10/06 06:24:30;;;;;;;;;;;12.30;99.90;;;;;;7336830;19;109500;-72
2022/10/06 06:26:57;;;;;;;;;;;12.30;99.90;;;;;;7339439;19;113273;-72
2022/10/06 06:29:24;;;;;;;;;;;12.30;99.90;;;;;;7337544;19;110686;-71
2022/10/06 06:31:51;;;;;;;;;;;12.40;99.90;;;;;;7337326;19;108600;-71
2022/10/06 06:34:18;;;;;;;;;;;12.40;99.90;;;;;;7337866;19;112392;-72
2022/10/06 06:36:50;;;;;;;;;;;12.40;99.90;;;;;;7336972;19;109092;-73
2022/10/06 06:39:18;;;;;;;;;;;12.40;99.90;;;;;;7344080;19;108809;-72
2022/10/06 06:41:46;;;;;;;;;;;12.40;99.90;;;;;;7335052;19;110397;-72
2022/10/06 06:44:13;;;;;;;;;;;12.50;99.90;;;;;;7338656;19;108881;-72
2022/10/06 06:46:42;;;;;;;;;;;12.50;99.90;;;;;;7340427;19;109667;-71
2022/10/06 06:49:10;;;;;;;;;;;12.50;99.90;;;;;;7336833;19;110117;-72
2022/10/06 06:51:39;;;;;;;;;;;12.60;99.90;;;;;;7338246;19;108713;-71
2022/10/06 06:54:07;;;;;;;;;;;12.60;99.90;;;;;;7334723;19;109914;-71
2022/10/06 06:56:34;;;;;;;;;;;12.70;99.90;;;;;;7336349;19;110274;-73
2022/10/06 06:59:10;;;;;;;;;;;12.70;99.90;;;;;;7338136;19;108909;-73
2022/10/06 07:01:40;;;;;;;;;;;12.80;99.90;;;;;;7343314;19;109062;-72
2022/10/06 07:04:07;;;;;;;;;;;12.80;99.90;;;;;;7338521;19;108371;-72
2022/10/06 07:06:35;;;;;;;;;;;12.80;99.90;;;;;;7335737;19;109314;-71
2022/10/06 07:09:02;;;;;;;;;;;12.90;99.90;;;;;;7336541;19;109444;-71
2022/10/06 07:11:31;;;;;;;;;;;13.00;99.90;;;;;;7334545;19;109425;-71
2022/10/06 07:14:00;;;;;;;;;;;13.00;99.90;;;;;;7336053;19;109020;-71
2022/10/06 07:27:42;;;;;;;;;;;13.30;99.90;;;;;;7337113;19;109624;-71
2022/10/06 07:30:10;;;;;;;;;;;13.40;99.90;;;;;;7335699;19;110286;-72
2022/10/06 07:32:37;;;;;;;;;;;13.50;99.90;;;;;;7336646;19;109193;-71
2022/10/06 07:35:05;;;;;;;;;;;13.50;99.90;;;;;;7336788;19;111664;-71
2022/10/06 07:37:34;;;;;;;;;;;13.50;99.90;;;;;;7335179;19;110294;-71
2022/10/06 07:40:01;;;;;;;;;;;13.60;99.90;;;;;;7336638;19;109096;-71
2022/10/06 07:42:28;;;;;;;;;;;13.60;99.90;;;;;;7335098;19;109664;-71
2022/10/06 07:47:40;;;;;;;;;;;13.70;99.90;;;;;;7342102;19;109400;-71
2022/10/06 07:50:07;;;;;;;;;;;13.80;99.90;;;;;;7336393;19;110521;-71
2022/10/06 07:52:38;;;;;;;;;;;13.90;99.90;;;;;;7337170;19;109283;-72
2022/10/06 07:55:05;;;;;;;;;;;14.00;99.90;;;;;;7337266;19;109579;-71
2022/10/06 07:57:34;;;;;;;;;;;14.00;99.90;;;;;;7334367;19;110016;-71
2022/10/06 08:00:04;;;;;;;;;;;14.10;99.90;;;;;;7335897;19;108451;-71
2022/10/06 08:02:31;;;;;;;;;;;14.10;99.90;;;;;;7334787;19;111545;-71
2022/10/06 08:05:02;;;;;;;;;;;14.20;99.90;;;;;;7334436;19;109264;-71
2022/10/06 08:07:29;;;;;;;;;;;14.30;99.90;;;;;;7335849;19;109770;-71
2022/10/06 08:09:56;;;;;;;;;;;14.40;99.90;;;;;;7340193;19;109587;-70
2022/10/06 08:12:32;;;;;;;;;;;14.40;99.90;;;;;;7333778;19;108372;-72
2022/10/06 08:15:02;;;;;;;;;;;14.50;99.90;;;;;;7334346;19;109195;-72
2022/10/06 08:17:34;;;;;;;;;;;14.60;99.90;;;;;;7335110;19;112080;-73
2022/10/06 08:20:01;;;;;;;;;;;14.60;99.90;;;;;;7334409;19;108535;-73
2022/10/06 08:22:28;;;;;;;;;;;14.70;99.90;;;;;;7333793;19;110246;-71
2022/10/06 08:24:56;;;;;;;;;;;14.70;99.90;;;;;;7334452;19;110222;-73
2022/10/06 08:27:33;;;;;;;;;;;14.80;99.90;;;;;;7337201;19;108459;-72
2022/10/06 08:30:00;;;;;;;;;;;14.90;99.90;;;;;;7340270;19;112157;-72
2022/10/06 08:32:27;;;;;;;;;;;15.00;99.90;;;;;;7331885;19;108653;-72
2022/10/06 08:34:54;;;;;;;;;;;15.00;99.90;;;;;;7335043;19;109586;-72
2022/10/06 08:37:26;;;;;;;;;;;15.10;99.90;;;;;;7335816;19;110176;-72
2022/10/06 08:39:53;;;;;;;;;;;15.10;99.90;;;;;;7336759;19;110886;-72
2022/10/06 08:42:32;;;;;;;;;;;15.20;99.90;;;;;;7334085;19;109223;-72
2022/10/06 08:45:01;;;;;;;;;;;15.30;99.90;;;;;;7334524;19;110881;-73
2022/10/06 08:47:32;;;;;;;;;;;15.30;99.90;;;;;;7334729;19;109257;-73
2022/10/06 08:50:00;;;;;;;;;;;15.40;99.90;;;;;;7335855;19;109509;-72
2022/10/06 08:52:37;;;;;;;;;;;15.50;99.90;;;;;;7338652;19;110541;-73
2022/10/06 08:55:13;;;;;;;;;;;15.50;99.90;;;;;;7334844;19;108958;-72
2022/10/06 08:57:39;;;;;;;;;;;15.60;99.90;;;;;;7334633;19;109984;-72
2022/10/06 09:00:11;;;;;;;;;;;15.70;99.90;;;;;;7333899;19;108559;-72
2022/10/06 09:02:41;;;;;;;;;;;15.80;99.90;;;;;;7332861;19;109223;-72
2022/10/06 09:05:10;;;;;;;;;;;15.80;99.90;;;;;;7333101;19;110652;-73
2022/10/06 09:07:58;;;;;;;;;;;15.90;99.90;;;;;;7335540;19;108937;-72
2022/10/06 09:10:24;;;;;;;;;;;15.90;99.90;;;;;;7331109;19;110334;-73
2022/10/06 09:12:54;;;;;;;;;;;16.00;99.90;;;;;;7334233;19;109931;-72
2022/10/06 09:15:45;;;;;;;;;;;16.10;99.90;;;;;;7337353;19;108362;-73
2022/10/06 09:18:24;;;;;;;;;;;16.10;99.90;;;;;;7333082;19;110220;-73
2022/10/06 09:21:05;;;;;;;;;;;16.20;99.90;;;;;;7335552;19;108392;-73
2022/10/06 09:23:49;;;;;;;;;;;16.20;99.90;;;;;;7333014;19;109026;-73
2022/10/06 09:26:17;;;;;;;;;;;16.30;99.90;;;;;;7333342;19;110384;-72
2022/10/06 09:28:45;;;;;;;;;;;16.40;99.90;;;;;;7334896;19;109772;-72
2022/10/06 09:31:20;;;;;;;;;;;16.40;99.90;;;;;;7334187;19;109416;-72
2022/10/06 09:33:50;;;;;;;;;;;16.50;99.90;;;;;;7332521;19;110068;-73
2022/10/06 09:36:17;;;;;;;;;;;16.50;99.90;;;;;;7333709;19;108384;-74
2022/10/06 09:38:52;;;;;;;;;;;16.50;99.90;;;;;;7338935;19;110253;-73
2022/10/06 09:41:32;;;;;;;;;;;16.60;99.90;;;;;;7334322;19;108778;-72
2022/10/06 09:44:19;;;;;;;;;;;16.60;99.90;;;;;;7335301;19;109529;-74
2022/10/06 09:46:46;;;;;;;;;;;16.60;99.90;;;;;;7340316;19;110735;-73
2022/10/06 09:49:17;;;;;;;;;;;16.70;99.90;;;;;;7338773;19;111972;-73
2022/10/06 09:51:56;;;;;;;;;;;16.80;99.90;;;;;;7341864;19;110024;-73
2022/10/06 09:54:23;;;;;;;;;;;16.80;99.90;;;;;;7333315;19;110196;-73
2022/10/06 09:56:52;;;;;;;;;;;16.80;99.90;;;;;;7339614;19;108826;-72
2022/10/06 09:59:28;;;;;;;;;;;16.90;99.90;;;;;;7338940;19;109015;-72
2022/10/06 10:01:56;;;;;;;;;;;16.90;99.90;;;;;;7343639;19;109356;-72
2022/10/06 10:04:25;;;;;;;;;;;17.00;99.90;;;;;;7338544;19;108356;-73
2022/10/06 10:06:52;;;;;;;;;;;17.00;99.90;;;;;;7337645;19;110773;-72
2022/10/06 10:09:24;;;;;;;;;;;17.10;99.90;;;;;;7337040;19;109089;-72
2022/10/06 10:12:24;;;;;;;;;;;17.10;99.90;;;;;;7340372;19;110964;-73
2022/10/06 10:14:51;;;;;;;;;;;17.20;99.90;;;;;;7338701;19;108926;-72
2022/10/06 10:17:33;;;;;;;;;;;17.30;99.90;;;;;;7337445;19;108869;-73
2022/10/06 10:20:01;;;;;;;;;;;17.30;99.90;;;;;;7336869;19;109275;-72
2022/10/06 10:22:38;;;;;;;;;;;17.30;99.90;;;;;;7337940;19;110884;-73
2022/10/06 10:25:05;;;;;;;;;;;17.40;99.90;;;;;;7344509;19;109523;-74
2022/10/06 10:27:32;;;;;;;;;;;17.30;99.90;;;;;;7336620;19;113505;-73
2022/10/06 10:30:10;;;;;;;;;;;17.40;99.90;;;;;;7337751;19;109216;-72
2022/10/06 10:32:41;;;;;;;;;;;17.50;99.90;;;;;;7340559;19;108407;-73
2022/10/06 10:35:15;;;;;;;;;;;17.60;99.90;;;;;;7338310;19;111278;-73
2022/10/06 10:38:02;;;;;;;;;;;17.60;99.90;;;;;;7339281;19;108766;-72
2022/10/06 10:40:29;;;;;;;;;;;17.60;99.90;;;;;;7338245;19;109451;-73
2022/10/06 10:43:16;;;;;;;;;;;17.70;99.90;;;;;;7339086;19;109832;-72
2022/10/06 10:45:49;;;;;;;;;;;17.70;99.90;;;;;;7344853;19;112603;-73
2022/10/06 10:48:26;;;;;;;;;;;17.70;99.90;;;;;;7338182;19;111885;-73
2022/10/06 10:51:00;;;;;;;;;;;17.80;99.90;;;;;;7337181;19;109364;-73
2022/10/06 10:53:30;;;;;;;;;;;17.80;99.90;;;;;;7335759;19;108911;-73
2022/10/06 10:55:58;;;;;;;;;;;17.90;99.90;;;;;;7339329;19;109389;-73
2022/10/06 10:58:30;;;;;;;;;;;18.00;99.90;;;;;;7337745;19;109537;-73
2022/10/06 11:01:04;;;;;;;;;;;18.00;99.90;;;;;;7336425;19;109634;-73
2022/10/06 11:03:31;;;;;;;;;;;18.10;99.90;;;;;;7333610;19;110573;-73
2022/10/06 11:06:27;;;;;;;;;;;18.20;99.90;;;;;;7336437;19;108829;-73
2022/10/06 11:09:14;;;;;;;;;;;18.20;99.90;;;;;;7338113;19;109198;-73
2022/10/06 11:11:46;;;;;;;;;;;18.30;99.90;;;;;;7332717;19;109029;-72
2022/10/06 11:14:23;;;;;;;;;;;18.30;99.90;;;;;;7333434;19;110004;-74
2022/10/06 11:17:03;;;;;;;;;;;18.40;99.90;;;;;;7333908;19;109171;-73
2022/10/06 11:19:38;;;;;;;;;;;18.50;99.90;;;;;;7333901;19;108944;-73
2022/10/06 11:22:09;;;;;;;;;;;18.50;99.90;;;;;;7330817;19;109214;-73
2022/10/06 11:24:39;;;;;;;;;;;18.50;99.90;;;;;;7332622;19;112796;-73
2022/10/06 11:27:19;;;;;;;;;;;18.60;99.90;;;;;;7332035;19;108626;-73
2022/10/06 11:30:00;;;;;;;;;;;18.70;99.90;;;;;;7332121;19;109247;-73
2022/10/06 11:32:42;;;;;;;;;;;18.80;99.90;;;;;;7338193;19;110399;-73
2022/10/06 11:35:17;;;;;;;;;;;18.90;99.90;;;;;;7332326;19;109264;-73
2022/10/06 11:38:19;;;;;;;;;;;19.00;99.90;;;;;;7332567;19;110182;-73
2022/10/06 11:40:46;;;;;;;;;;;19.10;99.90;;;;;;7332684;19;108422;-73
2022/10/06 11:43:34;;;;;;;;;;;19.20;99.90;;;;;;7333232;19;109628;-72
2022/10/06 11:46:19;;;;;;;;;;;19.20;99.90;;;;;;7330726;19;110101;-73
2022/10/06 11:48:46;;;;;;;;;;;19.40;99.90;;;;;;7334255;19;108923;-73
2022/10/06 11:51:22;;;;;;;;;;;19.50;99.90;;;;;;7332327;19;109578;-73
2022/10/06 11:53:50;;;;;;;;;;;19.50;99.90;;;;;;7330814;19;110409;-73
2022/10/06 11:56:16;;;;;;;;;;;19.50;99.90;;;;;;7333963;19;108470;-73
2022/10/06 11:58:49;;;;;;;;;;;19.50;98.50;;;;;;7332585;19;109801;-73
2022/10/06 12:01:32;;;;;;;;;;;19.60;99.90;;;;;;7334537;19;109899;-73
2022/10/06 12:04:08;;;;;;;;;;;19.70;99.70;;;;;;7333726;19;109276;-73
2022/10/06 12:06:40;;;;;;;;;;;19.70;99.60;;;;;;7331594;19;110103;-75
2022/10/06 12:09:22;;;;;;;;;;;19.80;98.30;;;;;;7331322;19;108688;-73
2022/10/06 12:11:50;;;;;;;;;;;19.80;98.00;;;;;;7332639;19;108913;-73
2022/10/06 12:14:27;;;;;;;;;;;19.80;99.00;;;;;;7331320;19;110595;-74
2022/10/06 12:17:19;;;;;;;;;;;19.80;98.00;;;;;;7335746;19;111498;-73
2022/10/06 12:19:49;;;;;;;;;;;19.80;98.90;;;;;;7340405;19;109069;-73
2022/10/06 12:22:36;;;;;;;;;;;20.00;97.80;;;;;;7335886;19;109054;-73
2022/10/06 12:25:02;;;;;;;;;;;20.00;97.90;;;;;;7327035;19;109827;-74
2022/10/06 12:27:48;;;;;;;;;;;20.00;97.70;;;;;;7330682;19;110239;-73
2022/10/06 12:30:15;;;;;;;;;;;20.00;98.00;;;;;;7329703;19;109847;-74
2022/10/06 12:33:04;;;;;;;;;;;20.10;96.90;;;;;;7336635;19;109155;-73
2022/10/06 12:35:32;;;;;;;;;;;20.10;97.60;;;;;;7332715;19;109241;-73
2022/10/06 12:38:04;;;;;;;;;;;20.20;96.80;;;;;;7334003;19;108396;-73
2022/10/06 12:40:45;;;;;;;;;;;20.30;97.40;;;;;;7337733;19;110104;-72
2022/10/06 12:43:19;;;;;;;;;;;20.40;97.60;;;;;;7331440;19;108521;-76
2022/10/06 12:45:46;;;;;;;;;;;20.50;96.40;;;;;;7335921;19;109783;-73
2022/10/06 12:48:16;;;;;;;;;;;20.50;96.60;;;;;;7332197;19;110062;-73
2022/10/06 12:50:44;;;;;;;;;;;20.60;97.10;;;;;;7334559;19;110059;-74
2022/10/06 12:53:15;;;;;;;;;;;20.60;96.40;;;;;;7333954;19;109186;-74
2022/10/06 12:55:42;;;;;;;;;;;20.70;96.20;;;;;;7334381;19;110164;-73
2022/10/06 12:58:18;;;;;;;;;;;20.70;94.90;;;;;;7328062;19;108432;-73
2022/10/06 13:00:46;;;;;;;;;;;20.70;95.40;;;;;;7331954;19;109767;-73
2022/10/06 13:03:23;;;;;;;;;;;20.80;95.80;;;;;;7334688;19;110431;-74
2022/10/06 13:05:51;;;;;;;;;;;20.80;95.70;;;;;;7328957;19;110570;-73
2022/10/06 13:08:22;;;;;;;;;;;20.90;95.70;;;;;;7332429;19;111611;-73
2022/10/06 13:10:49;;;;;;;;;;;20.90;96.20;;;;;;7333387;19;109867;-73
2022/10/06 13:13:22;;;;;;;;;;;20.90;95.70;;;;;;7329946;19;108599;-73
2022/10/06 13:15:59;;;;;;;;;;;21.10;95.40;;;;;;7333062;19;110179;-73
2022/10/06 13:18:26;;;;;;;;;;;21.20;95.40;;;;;;7333721;19;109052;-73
2022/10/06 13:20:57;;;;;;;;;;;21.20;94.80;;;;;;7341791;19;110962;-73
2022/10/06 13:23:35;;;;;;;;;;;21.30;95.60;;;;;;7339776;19;110295;-73
2022/10/06 13:26:07;;;;;;;;;;;21.40;95.10;;;;;;7344753;19;108742;-73
2022/10/06 13:28:43;;;;;;;;;;;21.50;95.30;;;;;;7338939;19;110232;-73
2022/10/06 13:31:18;;;;;;;;;;;21.60;94.50;;;;;;7341322;19;108963;-73
2022/10/06 13:33:47;;;;;;;;;;;21.50;93.90;;;;;;7341419;19;110548;-73
2022/10/06 13:36:14;;;;;;;;;;;21.50;94.30;;;;;;7339248;19;110022;-73
2022/10/06 13:38:41;;;;;;;;;;;21.50;94.40;;;;;;7340024;19;109093;-73
2022/10/06 13:41:17;;;;;;;;;;;21.60;94.20;;;;;;7341309;19;111115;-74
2022/10/06 13:43:52;;;;;;;;;;;21.60;93.10;;;;;;7338830;19;110414;-74
2022/10/06 13:46:23;;;;;;;;;;;21.50;92.70;;;;;;7339128;19;109025;-74
2022/10/06 13:48:51;;;;;;;;;;;21.60;93.80;;;;;;7345241;19;109162;-73
2022/10/06 13:51:20;;;;;;;;;;;21.70;90.80;;;;;;7341399;19;109059;-73
2022/10/06 13:53:48;;;;;;;;;;;21.70;92.10;;;;;;7339556;19;109329;-73
2022/10/06 13:56:34;;;;;;;;;;;21.80;92.30;;;;;;7336997;19;109394;-73
2022/10/06 13:59:21;;;;;;;;;;;21.80;93.00;;;;;;7339263;19;108956;-73
2022/10/06 14:01:48;;;;;;;;;;;21.80;91.70;;;;;;7339020;19;109650;-73
2022/10/06 14:04:19;;;;;;;;;;;21.90;91.80;;;;;;7339677;19;110168;-71
2022/10/06 14:06:50;;;;;;;;;;;21.90;92.10;;;;;;7339547;19;109806;-71
2022/10/06 14:09:24;;;;;;;;;;;21.90;91.70;;;;;;7338534;19;109612;-73
2022/10/06 14:11:52;;;;;;;;;;;22.00;91.30;;;;;;7345377;19;110358;-70
2022/10/06 14:14:19;;;;;;;;;;;22.10;91.10;;;;;;7337585;19;109299;-73
2022/10/06 14:16:48;;;;;;;;;;;22.10;91.20;;;;;;7336911;19;110472;-72
2022/10/06 14:19:28;;;;;;;;;;;22.10;90.40;;;;;;7337202;19;109137;-72
2022/10/06 14:21:55;;;;;;;;;;;22.10;90.60;;;;;;7339177;19;109112;-73
2022/10/06 14:24:22;;;;;;;;;;;22.10;91.10;;;;;;7338973;19;111508;-73
2022/10/06 14:26:49;;;;;;;;;;;22.20;91.00;;;;;;7336149;19;109035;-73
2022/10/06 14:29:16;;;;;;;;;;;22.10;88.70;;;;;;7337783;19;109558;-72
2022/10/06 14:31:44;;;;;;;;;;;22.10;91.10;;;;;;7336544;19;110214;-72
2022/10/06 14:34:15;;;;;;;;;;;22.10;90.00;;;;;;7341927;19;108535;-72
2022/10/06 14:36:46;;;;;;;;;;;22.10;87.60;;;;;;7339754;19;110145;-73
2022/10/06 14:39:14;;;;;;;;;;;22.20;91.00;;;;;;7339017;19;110509;-72